Sindal, Denmark

5:47 AM CET on February 11, 2016 (GMT +0100)
Tryggemelle | | Change Station
CLOSE
Current Station
Personal Weather Station
Location: Lendum, NORDJYLLAND
Elevation: 295 ft
Nearby Weather Stations

Elev 295 ft 57.42 °N, 10.27 °E | Updated 1 second ago

Mostly Cloudy
Mostly Cloudy
39.0 °F
Feels Like 39 °F
N
1.8
Wind Variable Wind from West
Gusts 2.5 mph

Today
High -- | Low -- °F
--% Chance of Precip.
Yesterday
High -- | Low -- °F
Precip. -- in
Pressure 29.36 in
Visibility 6.2 miles
Clouds Scattered Clouds 2000 ft
Mostly Cloudy 2800 ft
Windchill 39 °F
Dew Point 39 °F
Humidity 99%
Rainfall 0.00 in
Snow Depth Not available.
7:59 AM 5:07 PM
Waxing Crescent, 9% visible
METAR EKYT 110420Z 00000KT 9999 SCT020 BKN028 03/02 Q0994
Pressure 29.36 in
Visibility 6.2 miles
Clouds Scattered Clouds 2000 ft
Mostly Cloudy 2800 ft
Windchill 39 °F
Dew Point 39 °F
Humidity 99%
Rainfall 0.00 in
Snow Depth Not available.
7:59 AM 5:07 PM
Waxing Crescent, 9% visible
METAR EKYT 110420Z 00000KT 9999 SCT020 BKN028 03/02 Q0994

10-Day Weather Forecast

Almanac

Astronomy

Feb. 11, 2016 Rise Set
Actual Time
Civil Twilight
Nautical Twilight
Astronomical Twilight
Moon
Length of Visible Light
Length of Day
Tomorrow will be .
, % of the Moon is Illuminated

Today's Extremes

Country Highs Country Lows

Community

WunderPhotos

Upload Photos

1,892,015 photos uploaded!

WunderBlog® & News

Nearby

Air Quality

  Air Quality AQ Index Pollutant
Not available.

Snow Depth

Station Depth Elevation

Earthquake Activity

City Distance Mag. Time & Date
Minimum magnitude displayed is 2.5.

Coastal Water Temperatures

Place Temperature

Stations

Nearby Weather Stations

Station Location Temp. Windchill Dew Point Humidity Wind Precip. Elev Updated Type